KGLD

Renner Field / Goodland Municipal / Airport

Goodland, Kansas, USA
METAR KGLD 230053Z AUTO 07006KT 10SM CLR 11/06 A3018 RMK AO2 SLP218 T01110056
Observed Flight Rules
Oct-23 @ 00:53 UTC (16 minutes ago) Visual Flight Rules
Wind Visibility Clouds
70° at 6 knots 10 miles
  • Clear skies
Temperatures Readings
Current 11°C / 52°F
Dewpoint 6°C / 43°F
Humidity 72%
Altimeter 30.18" Hg
Pressure 1021.8 hPa
Elevation 1113
METAR KGLD 230053Z AUTO 07006KT 10SM CLR 11/06 A3018 RMK AO2 SLP218 T01110056
Observed Flight Rules
Oct-23 @ 00:53 UTC
(16 minutes ago)
VFR
Wind Visibility
70° at 6 knots 10 miles
Clouds
  • Clear skies
Temperature Dewpoint
11°C / 52°F 6°C / 43°F
Humidity Altimeter Pressure
72% 30.18" Hg 1021.8 hPa